Airfield :







YOU CAN JOIN US ON...

 
LOGIN :

Register | Disclaimer

   EN    FR    IT 

 









Legend :    VFR   Marginal VFR   IFR   Intensive IFR   Very Intensive IFR
Visi :
Ceiling :
>= 8 km
>= 3000ft
5 to 8 km
1000 to 3000 ft
1500m to 5 km
500 to 1000 ft
800 to 1500m
200 to 500 ft
< 800m
< 200 ft
Symbols :   Thunderstorms  Fog  Heavy snow  Heavy precipitations  Wind > 20 kt







- Airport Elevation : 124 ft
- IATA code : YGV


CYGV - Havre St Pierre

CURRENT METAR :
  • 210000Z AUTO 07008KT 9SM OVC080 05/M00 A2986 RMK SLP115

EXPIRED METARs :
  • 202300Z AUTO 10005KT 9SM OVC080 06/M00 A2987 RMK SLP117
  • 202200Z AUTO 12006KT 9SM OVC085 07/M02 A2988 RMK SLP121

TAF TAF CYGV
Valid from the 20 at 20:00 until the 21 at 08:00 UTC


201938Z 2020/2108 10010KT P6SM SCT030 OVC100
FM210600 07012G22KT P6SM BKN030 OVC080
TEMPO 2106/2108 P6SM -RA BKN020 OVC080 RMK FCST BASED ON AUTO OBS. NXT FCST BY 210200Z
CZUL FIR / North America



MET'MAP, your aeronautical weather chart ! - Copyright ORBIFLY December 2007 - Disclaimer

ORBIFLY MET'MAP TEAM :

Programming & Development : Alexandra Zaïnal
Concept & Development : Baudouin d'Aumeries
Co-Development & Prog : Marc-Olivier Méhu
Technical & hardware support : Manuel Goepfert

Contact : metmap@orbifly.com




SOURCES & CREDITS :

   NOAA